createdAt,value
2022-08-05T00:00:55.996Z,93792.63
2022-08-05T00:02:21.321Z,93792.48
2022-08-05T00:03:24.623Z,93793.02
2022-08-05T00:04:32.235Z,93789.08
2022-08-05T00:06:05.553Z,93789.59
2022-08-05T00:07:02.700Z,93789.56
2022-08-05T00:08:34.282Z,93789.56
2022-08-05T00:09:38.540Z,93791.17
2022-08-05T00:10:47.171Z,93792.35
2022-08-05T00:11:55.663Z,93789.89
2022-08-05T00:13:09.480Z,93788.34
2022-08-05T00:14:27.809Z,93787.22
2022-08-05T00:15:58.226Z,93784.14
2022-08-05T00:17:05.923Z,93786.42
2022-08-05T00:18:22.898Z,93781.44
2022-08-05T00:19:33.831Z,93780.02
2022-08-05T00:20:49.037Z,93784.56
2022-08-05T00:21:52.307Z,93784.63
2022-08-05T00:22:58.500Z,93781.67
2022-08-05T00:24:10.381Z,93779.98
2022-08-05T00:25:14.257Z,93778.65
2022-08-05T00:26:20.187Z,93777.65
2022-08-05T00:27:35.955Z,93778.23
2022-08-05T00:28:39.893Z,93775.36
2022-08-05T00:29:43.010Z,93777.38
2022-08-05T00:30:46.162Z,93774.20
2022-08-05T00:32:12.519Z,93775.00
2022-08-05T00:34:54.016Z,93777.14
2022-08-05T00:35:03.640Z,93776.89
2022-08-05T00:36:16.273Z,93773.71
2022-08-05T00:37:51.267Z,93776.91
2022-08-05T00:38:52.683Z,93774.30
2022-08-05T00:39:58.340Z,93773.14
2022-08-05T00:41:02.388Z,93773.60
2022-08-05T00:42:08.759Z,93763.70
2022-08-05T00:43:15.341Z,93770.89
2022-08-05T00:44:18.644Z,93770.08
2022-08-05T00:45:39.152Z,93769.92
2022-08-05T00:46:47.006Z,93771.90
2022-08-05T00:48:05.610Z,93769.58
2022-08-05T00:49:09.645Z,93764.81
2022-08-05T00:50:21.070Z,93764.52
2022-08-05T00:51:50.873Z,93764.09
2022-08-05T00:52:47.540Z,93759.91
2022-08-05T00:54:02.472Z,93762.41
2022-08-05T00:55:06.771Z,93762.63
2022-08-05T00:56:09.990Z,93761.52
2022-08-05T00:57:15.697Z,93758.59
2022-08-05T00:58:27.235Z,93760.46
2022-08-05T00:59:34.737Z,93756.73
2022-08-05T01:00:50.349Z,93754.17
2022-08-05T01:01:53.630Z,93752.90
2022-08-05T01:02:59.935Z,93751.77
2022-08-05T01:04:04.042Z,93752.29
2022-08-05T01:05:17.183Z,93750.58
2022-08-05T01:06:20.385Z,93748.95
2022-08-05T01:07:35.477Z,93751.81
2022-08-05T01:08:42.758Z,93745.84
2022-08-05T01:09:55.656Z,93749.38
2022-08-05T01:11:11.485Z,93747.14
2022-08-05T01:12:20.627Z,93742.54
2022-08-05T01:13:58.585Z,93730.35
2022-08-05T01:15:05.750Z,93740.38
2022-08-05T01:16:44.608Z,93740.89
2022-08-05T01:18:05.661Z,93742.45
2022-08-05T01:19:36.671Z,93744.68
2022-08-05T01:20:46.878Z,93747.05
2022-08-05T01:22:15.333Z,93739.94
2022-08-05T01:23:34.859Z,93742.03
2022-08-05T01:24:47.303Z,93737.52
2022-08-05T01:26:14.215Z,93739.86
2022-08-05T01:27:50.554Z,93740.84
2022-08-05T01:29:04.976Z,93741.06
2022-08-05T01:30:12.402Z,93738.35
2022-08-05T01:31:45.009Z,93737.02
2022-08-05T01:32:51.336Z,93739.46
2022-08-05T01:33:59.712Z,93738.40
2022-08-05T01:35:50.988Z,93739.17
2022-08-05T01:36:47.980Z,93740.96
2022-08-05T01:37:55.258Z,93742.84
2022-08-05T01:39:01.337Z,93737.23
2022-08-05T01:40:06.290Z,93735.92
2022-08-05T01:41:13.989Z,93739.12
2022-08-05T01:42:20.848Z,93741.34
2022-08-05T01:43:25.843Z,93740.43
2022-08-05T01:44:34.218Z,93742.06
2022-08-05T01:45:43.150Z,93737.24
2022-08-05T01:46:47.553Z,93739.88
2022-08-05T01:47:54.482Z,93736.14
2022-08-05T01:49:01.133Z,93737.21
2022-08-05T01:50:30.476Z,93735.86
2022-08-05T01:51:36.128Z,93736.64
2022-08-05T01:52:43.289Z,93735.56
2022-08-05T01:53:57.048Z,93736.08
2022-08-05T01:55:07.215Z,93730.92
2022-08-05T01:58:11.440Z,93731.86
2022-08-05T01:58:12.155Z,93730.16
2022-08-05T01:59:16.117Z,93731.38
2022-08-05T02:00:20.004Z,93728.56
2022-08-05T02:01:39.999Z,93735.21
2022-08-05T02:02:53.677Z,93732.35
2022-08-05T02:04:00.268Z,93731.90
2022-08-05T02:05:11.639Z,93724.29
2022-08-05T02:06:33.981Z,93729.63
2022-08-05T02:07:40.093Z,93731.77
2022-08-05T02:08:55.024Z,93729.83
2022-08-05T02:10:03.612Z,93731.16
2022-08-05T02:11:11.826Z,93728.25
2022-08-05T02:12:40.768Z,93720.27
2022-08-05T02:13:53.280Z,93729.49
2022-08-05T02:15:33.289Z,93725.69
2022-08-05T02:16:52.884Z,93726.28
2022-08-05T02:18:32.145Z,93727.30
2022-08-05T02:19:28.310Z,93726.27
2022-08-05T02:20:40.828Z,93724.73
2022-08-05T02:21:53.386Z,93723.70
2022-08-05T02:23:01.647Z,93721.95
2022-08-05T02:24:09.388Z,93723.98
2022-08-05T02:25:19.743Z,93720.97
2022-08-05T02:26:54.579Z,93722.08
2022-08-05T02:28:01.201Z,93721.95
2022-08-05T02:29:06.442Z,93720.90
2022-08-05T02:30:28.893Z,93719.30
2022-08-05T02:31:37.203Z,93724.40
2022-08-05T02:32:41.962Z,93722.12
2022-08-05T02:33:57.314Z,93724.83
2022-08-05T02:35:13.294Z,93722.48
2022-08-05T02:36:20.939Z,93722.59
2022-08-05T02:37:32.842Z,93725.09
2022-08-05T02:38:38.801Z,93721.95
2022-08-05T02:39:42.749Z,93724.00
2022-08-05T02:40:56.329Z,93721.40
2022-08-05T02:42:02.151Z,93720.61
2022-08-05T02:43:07.426Z,93722.76
2022-08-05T02:44:13.571Z,93723.38
2022-08-05T02:45:18.912Z,93719.71
2022-08-05T02:46:32.107Z,93722.36
2022-08-05T02:48:06.428Z,93718.51
2022-08-05T02:49:00.569Z,93717.68
2022-08-05T02:50:05.474Z,93718.67
2022-08-05T02:51:12.362Z,93716.30
2022-08-05T02:52:29.741Z,93718.89
2022-08-05T02:53:39.549Z,93720.30
2022-08-05T02:54:52.138Z,93719.70
2022-08-05T02:56:02.342Z,93715.97
2022-08-05T02:58:19.714Z,93712.43
2022-08-05T02:58:37.716Z,93715.00
2022-08-05T02:59:51.978Z,93713.31
2022-08-05T03:01:11.693Z,93715.02
2022-08-05T03:02:21.272Z,93718.78
2022-08-05T03:03:26.062Z,93713.38
2022-08-05T03:04:30.177Z,93713.54
2022-08-05T03:06:54.061Z,93713.84
2022-08-05T03:06:59.481Z,93712.52
2022-08-05T03:08:08.522Z,93712.13
2022-08-05T03:09:15.822Z,93710.45
2022-08-05T03:10:24.509Z,93712.30
2022-08-05T03:11:57.429Z,93710.82
2022-08-05T03:12:54.411Z,93710.67
2022-08-05T03:14:03.153Z,93713.25
2022-08-05T03:15:12.308Z,93709.42
2022-08-05T03:16:16.321Z,93705.17
2022-08-05T03:17:23.233Z,93707.13
2022-08-05T03:18:29.961Z,93704.50
2022-08-05T03:19:36.171Z,93708.73
2022-08-05T03:20:48.757Z,93702.77
2022-08-05T03:21:52.473Z,93709.13
2022-08-05T03:22:57.635Z,93705.74
2022-08-05T03:24:29.790Z,93703.63
2022-08-05T03:26:03.574Z,93701.73
2022-08-05T03:27:10.328Z,93701.94
2022-08-05T03:28:18.857Z,93699.65
2022-08-05T03:29:23.303Z,93699.09
2022-08-05T03:30:33.367Z,93697.92
2022-08-05T03:31:56.121Z,93699.80
2022-08-05T03:33:02.111Z,93697.38
2022-08-05T03:34:06.205Z,93694.46
2022-08-05T03:35:11.639Z,93700.98
2022-08-05T03:36:30.374Z,93697.39
2022-08-05T03:37:45.847Z,93695.81
2022-08-05T03:38:52.482Z,93697.36
2022-08-05T03:40:06.446Z,93697.30
2022-08-05T03:41:23.604Z,93697.96
2022-08-05T03:42:29.090Z,93699.54
2022-08-05T03:44:09.334Z,93702.23
2022-08-05T03:45:22.491Z,93706.29
2022-08-05T03:46:34.566Z,93706.09
2022-08-05T03:47:41.328Z,93704.17
2022-08-05T03:48:46.682Z,93704.52
2022-08-05T03:49:52.011Z,93704.02
2022-08-05T03:52:50.258Z,93701.85
2022-08-05T03:54:59.099Z,93700.05
2022-08-05T03:56:04.637Z,93704.45
2022-08-05T03:56:06.228Z,93702.95
2022-08-05T03:57:34.482Z,93706.91
2022-08-05T03:58:38.215Z,93704.73
2022-08-05T03:59:55.593Z,93704.47
2022-08-05T04:01:02.317Z,93705.68
2022-08-05T04:02:12.186Z,93704.13
2022-08-05T04:03:28.554Z,93699.63
2022-08-05T04:04:33.234Z,93699.09
2022-08-05T04:05:38.589Z,93701.24
2022-08-05T04:06:47.853Z,93700.88
2022-08-05T04:07:58.634Z,93702.73
2022-08-05T04:09:06.456Z,93704.27
2022-08-05T04:10:10.587Z,93706.70
2022-08-05T04:11:20.763Z,93706.50
2022-08-05T04:12:26.456Z,93709.55
2022-08-05T04:13:50.354Z,93708.80
2022-08-05T04:14:54.699Z,93710.52
2022-08-05T04:16:04.825Z,93700.30
2022-08-05T04:17:09.322Z,93705.92
2022-08-05T04:18:20.539Z,93707.70
2022-08-05T04:19:26.469Z,93704.88
2022-08-05T04:20:32.307Z,93708.58
2022-08-05T04:22:08.278Z,93702.20
2022-08-05T04:23:00.256Z,93703.88
2022-08-05T04:24:08.823Z,93702.40
2022-08-05T04:25:38.378Z,93700.05
2022-08-05T04:26:45.056Z,93704.03
2022-08-05T04:27:57.193Z,93702.27
2022-08-05T04:29:07.062Z,93703.85
2022-08-05T04:30:11.457Z,93704.02
2022-08-05T04:31:17.066Z,93702.70
2022-08-05T04:32:31.165Z,93699.40
2022-08-05T04:34:19.302Z,93697.23
2022-08-05T04:34:59.832Z,93698.14
2022-08-05T04:36:11.373Z,93700.48
2022-08-05T04:37:20.060Z,93696.40
2022-08-05T04:38:39.498Z,93699.67
2022-08-05T04:39:43.240Z,93698.27
2022-08-05T04:40:47.884Z,93699.97
2022-08-05T04:41:54.443Z,93702.66
2022-08-05T04:42:58.674Z,93703.13
2022-08-05T04:44:02.123Z,93704.61
2022-08-05T04:45:14.156Z,93707.11
2022-08-05T04:46:28.305Z,93706.20
2022-08-05T04:47:38.605Z,93705.02
2022-08-05T04:48:46.206Z,93712.73
2022-08-05T04:50:02.895Z,93711.17
2022-08-05T04:51:14.905Z,93710.31
2022-08-05T04:52:18.721Z,93712.42
2022-08-05T04:53:22.394Z,93708.70
2022-08-05T04:54:27.442Z,93710.44
2022-08-05T04:56:11.894Z,93710.15
2022-08-05T04:56:58.783Z,93708.71
2022-08-05T04:58:05.938Z,93708.72
2022-08-05T04:59:22.906Z,93711.46
2022-08-05T05:00:50.647Z,93710.45
2022-08-05T05:02:35.083Z,93714.39
2022-08-05T05:03:20.323Z,93714.60
2022-08-05T05:04:23.601Z,93714.23
2022-08-05T05:05:29.355Z,93717.61
2022-08-05T05:06:40.279Z,93716.66
2022-08-05T05:07:56.146Z,93718.89
2022-08-05T05:09:05.502Z,93719.30
2022-08-05T05:10:09.069Z,93718.52
2022-08-05T05:11:15.253Z,93719.26
2022-08-05T05:12:19.206Z,93722.77
2022-08-05T05:13:22.728Z,93718.14
2022-08-05T05:14:31.519Z,93721.02
2022-08-05T05:15:57.268Z,93720.81
2022-08-05T05:16:58.657Z,93717.88
2022-08-05T05:18:02.071Z,93723.54
2022-08-05T05:19:18.786Z,93725.48
2022-08-05T05:20:22.932Z,93725.91
2022-08-05T05:21:33.086Z,93726.02
2022-08-05T05:22:40.939Z,93723.98
2022-08-05T05:24:03.820Z,93724.73
2022-08-05T05:25:17.060Z,93724.14
2022-08-05T05:26:28.619Z,93725.11
2022-08-05T05:27:44.309Z,93722.96
2022-08-05T05:28:48.502Z,93720.96
2022-08-05T05:30:04.938Z,93725.61
2022-08-05T05:31:09.025Z,93724.51
2022-08-05T05:32:15.531Z,93724.74
2022-08-05T05:33:23.111Z,93724.05
2022-08-05T05:34:27.334Z,93726.02
2022-08-05T05:35:38.014Z,93723.02
2022-08-05T05:36:43.010Z,93726.17
2022-08-05T05:37:59.838Z,93722.45
2022-08-05T05:39:04.931Z,93719.85
2022-08-05T05:40:18.686Z,93720.44
2022-08-05T05:41:25.232Z,93717.11
2022-08-05T05:42:47.159Z,93718.65
2022-08-05T05:43:57.215Z,93717.38
2022-08-05T05:45:03.615Z,93722.20
2022-08-05T05:46:13.746Z,93720.86
2022-08-05T05:47:21.638Z,93718.95
2022-08-05T05:48:27.898Z,93718.28
2022-08-05T05:49:31.061Z,93720.39
2022-08-05T05:50:43.997Z,93715.93
2022-08-05T05:51:50.650Z,93721.68
2022-08-05T05:52:54.575Z,93724.50
2022-08-05T05:54:00.060Z,93722.61
2022-08-05T05:55:13.530Z,93720.70
2022-08-05T05:56:31.365Z,93723.13
2022-08-05T05:57:52.182Z,93721.38
2022-08-05T05:58:58.611Z,93720.36
2022-08-05T06:00:15.872Z,93716.99
2022-08-05T06:01:20.098Z,93719.70
2022-08-05T06:02:37.388Z,93714.12
2022-08-05T06:04:01.906Z,93713.84
2022-08-05T06:05:16.504Z,93708.73
2022-08-05T06:06:20.243Z,93711.55
2022-08-05T06:07:42.139Z,93714.14
2022-08-05T06:08:49.233Z,93713.50
2022-08-05T06:10:00.854Z,93719.13
2022-08-05T06:11:07.993Z,93719.42
2022-08-05T06:12:12.127Z,93714.63
2022-08-05T06:13:15.441Z,93717.63
2022-08-05T06:14:18.618Z,93719.89
2022-08-05T06:15:23.946Z,93717.30
2022-08-05T06:16:32.592Z,93717.27
2022-08-05T06:17:53.010Z,93719.75
2022-08-05T06:19:00.248Z,93719.67
2022-08-05T06:20:06.226Z,93719.54
2022-08-05T06:21:24.842Z,93717.60
2022-08-05T06:22:40.601Z,93723.40
2022-08-05T06:23:45.512Z,93723.88
2022-08-05T06:24:53.401Z,93721.40
2022-08-05T06:26:12.181Z,93725.27
2022-08-05T06:28:12.821Z,93721.98
2022-08-05T06:28:43.272Z,93722.58
2022-08-05T06:30:03.967Z,93722.27
2022-08-05T06:31:18.084Z,93719.27
2022-08-05T06:32:28.895Z,93722.79
2022-08-05T06:34:05.795Z,93720.30
2022-08-05T06:34:57.927Z,93721.77
2022-08-05T06:36:03.789Z,93719.08
2022-08-05T06:37:11.682Z,93718.95
2022-08-05T06:38:15.622Z,93722.10
2022-08-05T06:39:19.331Z,93721.59
2022-08-05T06:40:32.469Z,93719.55
2022-08-05T06:41:36.652Z,93726.59
2022-08-05T06:42:44.651Z,93727.30
2022-08-05T06:43:59.013Z,93728.55
2022-08-05T06:45:08.311Z,93726.80
2022-08-05T06:46:12.136Z,93724.09
2022-08-05T06:48:11.918Z,93728.67
2022-08-05T06:48:55.634Z,93724.52
2022-08-05T06:50:05.298Z,93723.22
2022-08-05T06:51:09.548Z,93720.05
2022-08-05T06:52:36.600Z,93720.38
2022-08-05T06:53:39.261Z,93720.58
2022-08-05T06:54:42.907Z,93719.13
2022-08-05T06:55:46.070Z,93720.16
2022-08-05T06:56:54.701Z,93721.09
2022-08-05T06:58:20.032Z,93721.67
2022-08-05T06:59:21.751Z,93726.52
2022-08-05T07:00:25.622Z,93726.45
2022-08-05T07:01:32.195Z,93721.99
2022-08-05T07:02:42.995Z,93723.15
2022-08-05T07:03:46.855Z,93725.83
2022-08-05T07:04:54.405Z,93725.37
2022-08-05T07:06:06.033Z,93727.89
2022-08-05T07:07:24.161Z,93725.89
2022-08-05T07:08:47.743Z,93732.20
2022-08-05T07:09:58.150Z,93731.86
2022-08-05T07:11:01.997Z,93731.27
2022-08-05T07:12:08.154Z,93731.44
2022-08-05T07:13:56.703Z,93732.08
2022-08-05T07:15:14.521Z,93733.66
2022-08-05T07:18:00.691Z,93729.40
2022-08-05T07:18:19.512Z,93726.17
2022-08-05T07:20:53.804Z,93724.77
2022-08-05T07:21:59.350Z,93724.53
2022-08-05T07:23:04.683Z,93724.13
2022-08-05T07:24:11.222Z,93725.24
2022-08-05T07:25:54.416Z,93724.56
2022-08-05T07:26:38.143Z,93725.67
2022-08-05T07:27:58.772Z,93728.51
2022-08-05T07:29:05.555Z,93726.84
2022-08-05T07:30:30.190Z,93726.24
2022-08-05T07:31:53.991Z,93729.42
2022-08-05T07:32:58.812Z,93725.13
2022-08-05T07:34:03.176Z,93724.55
2022-08-05T07:35:55.995Z,93726.08
2022-08-05T07:36:41.881Z,93724.02
2022-08-05T07:37:47.862Z,93725.62
2022-08-05T07:38:54.926Z,93722.52
2022-08-05T07:40:27.148Z,93721.83
2022-08-05T07:42:07.970Z,93723.55
2022-08-05T07:42:49.132Z,93725.18
2022-08-05T07:43:55.095Z,93725.24
2022-08-05T07:45:00.438Z,93722.85
2022-08-05T07:46:03.868Z,93719.81
2022-08-05T07:47:10.160Z,93719.27
2022-08-05T07:48:16.604Z,93720.93
2022-08-05T07:49:43.584Z,93724.63
2022-08-05T07:50:59.712Z,93722.11
2022-08-05T07:52:03.157Z,93721.91
2022-08-05T07:53:06.868Z,93722.43
2022-08-05T07:54:11.538Z,93723.35
2022-08-05T07:55:44.226Z,93720.85
2022-08-05T07:57:14.552Z,93720.67
2022-08-05T07:58:03.136Z,93722.55
2022-08-05T07:59:08.687Z,93722.75
2022-08-05T08:00:14.792Z,93726.77
2022-08-05T08:01:18.585Z,93724.54
2022-08-05T08:02:30.967Z,93729.88
2022-08-05T08:03:51.623Z,93728.24
2022-08-05T08:04:56.008Z,93728.69
2022-08-05T08:06:02.266Z,93730.34
2022-08-05T08:07:07.074Z,93729.03
2022-08-05T08:08:12.127Z,93728.50
2022-08-05T08:09:15.691Z,93732.60
2022-08-05T08:10:20.622Z,93732.09
2022-08-05T08:11:27.630Z,93733.44
2022-08-05T08:12:49.823Z,93733.25
2022-08-05T08:14:00.615Z,93737.63
2022-08-05T08:15:15.757Z,93741.11
2022-08-05T08:16:35.296Z,93739.89
2022-08-05T08:17:50.638Z,93740.73
2022-08-05T08:18:56.435Z,93738.22
2022-08-05T08:20:43.383Z,93740.00
2022-08-05T08:21:25.612Z,93739.15
2022-08-05T08:22:30.031Z,93728.19
2022-08-05T08:24:01.768Z,93737.02
2022-08-05T08:25:02.710Z,93740.36
2022-08-05T08:26:07.157Z,93740.36
2022-08-05T08:27:10.929Z,93742.83
2022-08-05T08:28:36.793Z,93740.35
2022-08-05T08:30:05.256Z,93743.63
2022-08-05T08:31:04.377Z,93740.84
2022-08-05T08:32:07.752Z,93745.83
2022-08-05T08:33:14.446Z,93745.23
2022-08-05T08:34:30.430Z,93742.82
2022-08-05T08:35:40.935Z,93742.27
2022-08-05T08:36:48.913Z,93738.09
2022-08-05T08:37:56.421Z,93741.68
2022-08-05T08:38:59.838Z,93738.33
2022-08-05T08:40:05.558Z,93739.65
2022-08-05T08:41:10.907Z,93739.64
2022-08-05T08:42:33.677Z,93736.66
2022-08-05T08:45:16.625Z,93736.05
2022-08-05T08:45:19.143Z,93738.90
2022-08-05T08:46:30.639Z,93745.00
2022-08-05T08:48:05.917Z,93737.66
2022-08-05T08:50:05.720Z,93736.02
2022-08-05T08:50:32.978Z,93736.80
2022-08-05T08:52:03.327Z,93738.73
2022-08-05T08:53:15.403Z,93737.25
2022-08-05T08:54:18.636Z,93736.28
2022-08-05T08:56:01.846Z,93739.44
2022-08-05T08:56:47.675Z,93736.41
2022-08-05T08:57:57.933Z,93738.42
2022-08-05T08:59:03.173Z,93736.41
2022-08-05T09:00:15.826Z,93738.61
2022-08-05T09:01:22.705Z,93736.48
2022-08-05T09:02:27.144Z,93743.60
2022-08-05T09:03:45.012Z,93743.07
2022-08-05T09:05:15.911Z,93742.77
2022-08-05T09:06:18.620Z,93743.61
2022-08-05T09:07:28.894Z,93741.57
2022-08-05T09:08:32.837Z,93743.58
2022-08-05T09:09:38.155Z,93742.29
2022-08-05T09:10:46.903Z,93743.29
2022-08-05T09:11:51.276Z,93741.64
2022-08-05T09:13:04.851Z,93736.84
2022-08-05T09:14:54.131Z,93741.20
2022-08-05T09:15:32.401Z,93738.65
2022-08-05T09:16:48.634Z,93736.67
2022-08-05T09:17:52.974Z,93738.00
2022-08-05T09:18:59.225Z,93734.47
2022-08-05T09:20:05.605Z,93739.98
2022-08-05T09:21:11.718Z,93738.13
2022-08-05T09:22:31.038Z,93743.36
2022-08-05T09:23:37.521Z,93737.98
2022-08-05T09:25:23.809Z,93742.47
2022-08-05T09:26:32.429Z,93740.47
2022-08-05T09:28:03.869Z,93742.20
2022-08-05T09:29:05.024Z,93740.33
2022-08-05T09:30:08.680Z,93742.48
2022-08-05T09:32:39.259Z,93742.52
2022-08-05T09:32:46.939Z,93742.27
2022-08-05T09:33:55.067Z,93738.94
2022-08-05T09:35:02.561Z,93740.45
2022-08-05T09:36:16.285Z,93740.05
2022-08-05T09:38:12.580Z,93745.08
2022-08-05T09:39:04.011Z,93745.70
2022-08-05T09:40:36.395Z,93744.75
2022-08-05T09:42:00.388Z,93747.03
2022-08-05T09:43:08.455Z,93742.14
2022-08-05T09:44:11.817Z,93747.39
2022-08-05T09:46:05.104Z,93746.80
2022-08-05T09:46:50.163Z,93751.73
2022-08-05T09:47:56.695Z,93745.73
2022-08-05T09:49:06.771Z,93752.88
2022-08-05T09:50:11.549Z,93748.40
2022-08-05T09:51:15.813Z,93743.52
2022-08-05T09:52:33.752Z,93744.00
2022-08-05T09:53:53.669Z,93740.23
2022-08-05T09:55:55.559Z,93746.04
2022-08-05T09:56:37.800Z,93748.06
2022-08-05T09:57:43.963Z,93749.40
2022-08-05T09:59:17.941Z,93746.89
2022-08-05T10:00:26.518Z,93747.83
2022-08-05T10:01:33.696Z,93748.31
2022-08-05T10:02:43.497Z,93749.55
2022-08-05T10:04:28.654Z,93747.11
2022-08-05T10:05:33.581Z,93748.10
2022-08-05T10:06:37.333Z,93747.52
2022-08-05T10:08:36.706Z,93746.71
2022-08-05T10:09:27.361Z,93748.52
2022-08-05T10:10:46.106Z,93746.80
2022-08-05T10:11:51.443Z,93741.01
2022-08-05T10:13:00.699Z,93745.95
2022-08-05T10:14:30.223Z,93746.63
2022-08-05T10:15:42.984Z,93751.58
2022-08-05T10:16:52.381Z,93750.80
2022-08-05T10:18:09.115Z,93743.86
2022-08-05T10:19:13.964Z,93754.40
2022-08-05T10:20:20.553Z,93755.88
2022-08-05T10:21:25.077Z,93750.02
2022-08-05T10:22:29.672Z,93747.01
2022-08-05T10:23:59.253Z,93751.04
2022-08-05T10:25:01.979Z,93748.30
2022-08-05T10:26:08.131Z,93753.66
2022-08-05T10:27:18.928Z,93751.77
2022-08-05T10:28:30.783Z,93753.88
2022-08-05T10:30:41.063Z,93748.38
2022-08-05T10:32:49.411Z,93749.34
2022-08-05T10:32:52.647Z,93746.00
2022-08-05T10:33:52.280Z,93744.73
2022-08-05T10:35:00.826Z,93750.92
2022-08-05T10:36:05.292Z,93749.33
2022-08-05T10:37:08.832Z,93750.07
2022-08-05T10:38:13.608Z,93751.23
2022-08-05T10:39:24.161Z,93754.63
2022-08-05T10:40:43.530Z,93758.27
2022-08-05T10:42:08.235Z,93756.52
2022-08-05T10:43:30.823Z,93756.89
2022-08-05T10:44:43.582Z,93757.23
2022-08-05T10:46:06.787Z,93757.29
2022-08-05T10:47:26.817Z,93754.61
2022-08-05T10:48:52.395Z,93762.04
2022-08-05T10:50:31.961Z,93759.86
2022-08-05T10:51:59.900Z,93752.98
2022-08-05T10:53:04.189Z,93759.05
2022-08-05T10:54:28.530Z,93758.45
2022-08-05T10:56:03.528Z,93754.77
2022-08-05T10:56:57.303Z,93759.37
2022-08-05T10:58:08.849Z,93760.30
2022-08-05T11:00:03.451Z,93754.13
2022-08-05T11:00:47.435Z,93755.73
2022-08-05T11:02:05.960Z,93757.46
2022-08-05T11:03:25.259Z,93758.30
2022-08-05T11:04:30.756Z,93754.48
2022-08-05T11:05:35.160Z,93755.86
2022-08-05T11:06:58.248Z,93757.92
2022-08-05T11:08:27.536Z,93757.13
2022-08-05T11:09:51.842Z,93758.77
2022-08-05T11:11:44.720Z,93754.05
2022-08-05T11:12:57.957Z,93760.39
2022-08-05T11:14:02.792Z,93757.81
2022-08-05T11:15:19.696Z,93759.60
2022-08-05T11:16:34.013Z,93753.89
2022-08-05T11:18:00.322Z,93757.93
2022-08-05T11:20:16.554Z,93754.34
2022-08-05T11:20:54.785Z,93752.16
2022-08-05T11:22:37.277Z,93751.44
2022-08-05T11:24:04.140Z,93752.97
2022-08-05T11:26:05.015Z,93752.98
2022-08-05T11:27:51.347Z,93754.65
2022-08-05T11:28:54.632Z,93745.95
2022-08-05T11:30:04.065Z,93748.89
2022-08-05T11:31:07.309Z,93752.86
2022-08-05T11:32:30.975Z,93755.27
2022-08-05T11:33:46.471Z,93750.88
2022-08-05T11:34:54.377Z,93752.77
2022-08-05T11:36:07.565Z,93753.55
2022-08-05T11:38:37.400Z,93755.43
2022-08-05T11:38:57.712Z,93750.86
2022-08-05T11:40:04.331Z,93752.73
2022-08-05T11:41:57.926Z,93750.14
2022-08-05T11:42:49.607Z,93747.80
2022-08-05T11:44:05.474Z,93755.07
2022-08-05T11:45:26.803Z,93749.76
2022-08-05T11:46:58.569Z,93751.34
2022-08-05T11:48:09.682Z,93750.77
2022-08-05T11:49:16.959Z,93750.80
2022-08-05T11:50:20.147Z,93757.48
2022-08-05T11:51:44.274Z,93752.21
2022-08-05T11:52:54.395Z,93757.42
2022-08-05T11:54:02.139Z,93757.63
2022-08-05T11:55:07.582Z,93760.10
2022-08-05T11:56:11.410Z,93754.48
2022-08-05T11:57:25.562Z,93757.72
2022-08-05T11:58:40.061Z,93763.61
2022-08-05T11:59:50.169Z,93764.54
2022-08-05T12:01:02.935Z,93761.15
2022-08-05T12:02:23.926Z,93764.23
2022-08-05T12:03:56.352Z,93764.73
2022-08-05T12:05:07.682Z,93769.54
2022-08-05T12:06:26.453Z,93767.85
2022-08-05T12:08:08.029Z,93766.77
2022-08-05T12:08:59.807Z,93771.15
2022-08-05T12:10:09.152Z,93772.96
2022-08-05T12:11:40.452Z,93774.98
2022-08-05T12:12:59.464Z,93772.29
2022-08-05T12:14:06.117Z,93775.00
2022-08-05T12:15:20.932Z,93777.77
2022-08-05T12:16:45.164Z,93774.00
2022-08-05T12:18:03.093Z,93773.86
2022-08-05T12:19:10.211Z,93769.23
2022-08-05T12:20:38.985Z,93767.10
2022-08-05T12:21:45.151Z,93770.16
2022-08-05T12:22:49.562Z,93769.84
2022-08-05T12:24:06.994Z,93767.11
2022-08-05T12:25:10.816Z,93762.09
2022-08-05T12:26:17.944Z,93764.13
2022-08-05T12:27:32.674Z,93762.04
2022-08-05T12:28:42.732Z,93765.82
2022-08-05T12:30:15.430Z,93759.39
2022-08-05T12:31:33.022Z,93765.78
2022-08-05T12:32:53.989Z,93762.93
2022-08-05T12:34:00.980Z,93766.19
2022-08-05T12:35:09.399Z,93759.07
2022-08-05T12:36:13.298Z,93757.42
2022-08-05T12:37:21.548Z,93759.27
2022-08-05T12:38:31.568Z,93760.32
2022-08-05T12:39:38.522Z,93759.05
2022-08-05T12:40:43.499Z,93759.07
2022-08-05T12:41:47.547Z,93758.27
2022-08-05T12:42:56.155Z,93757.98
2022-08-05T12:44:06.392Z,93757.12
2022-08-05T12:45:49.543Z,93758.70
2022-08-05T12:46:54.333Z,93755.82
2022-08-05T12:48:01.544Z,93752.29
2022-08-05T12:49:25.599Z,93751.48
2022-08-05T12:50:30.827Z,93748.89
2022-08-05T12:52:13.900Z,93746.26
2022-08-05T12:53:17.321Z,93745.56
2022-08-05T12:54:26.562Z,93742.21
2022-08-05T12:55:35.268Z,93742.83
2022-08-05T12:56:42.449Z,93741.50
2022-08-05T12:58:48.312Z,93735.70
2022-08-05T12:59:27.522Z,93737.52
2022-08-05T13:02:00.691Z,93737.16
2022-08-05T13:02:13.041Z,93738.63
2022-08-05T13:03:16.437Z,93736.63
2022-08-05T13:04:22.947Z,93736.23
2022-08-05T13:05:37.339Z,93733.89
2022-08-05T13:06:50.770Z,93736.61
2022-08-05T13:08:00.229Z,93732.31
2022-08-05T13:09:08.733Z,93726.98
2022-08-05T13:10:19.869Z,93733.71
2022-08-05T13:12:02.683Z,93731.63
2022-08-05T13:12:58.184Z,93727.48
2022-08-05T13:14:05.756Z,93727.23
2022-08-05T13:15:16.566Z,93724.10
2022-08-05T13:16:29.867Z,93725.38
2022-08-05T13:17:41.826Z,93725.05
2022-08-05T13:18:57.760Z,93726.11
2022-08-05T13:20:02.217Z,93720.00
2022-08-05T13:21:15.236Z,93722.08
2022-08-05T13:22:27.960Z,93723.66
2022-08-05T13:23:32.667Z,93723.59
2022-08-05T13:24:57.370Z,93720.45
2022-08-05T13:26:02.124Z,93721.40
2022-08-05T13:27:11.146Z,93716.77
2022-08-05T13:28:16.997Z,93714.83
2022-08-05T13:29:37.335Z,93718.36
2022-08-05T13:30:41.909Z,93721.24
2022-08-05T13:32:03.781Z,93719.05
2022-08-05T13:33:08.028Z,93714.66
2022-08-05T13:34:24.831Z,93713.68
2022-08-05T13:35:42.536Z,93711.11
2022-08-05T13:36:46.697Z,93710.38
2022-08-05T13:37:55.749Z,93709.72
2022-08-05T13:38:59.199Z,93713.00
2022-08-05T13:40:13.638Z,93710.54
2022-08-05T13:41:18.303Z,93708.02
2022-08-05T13:42:23.603Z,93707.90
2022-08-05T13:43:45.858Z,93706.11
2022-08-05T13:44:56.686Z,93698.36
2022-08-05T13:46:05.255Z,93706.73
2022-08-05T13:47:09.310Z,93708.36
2022-08-05T13:48:58.484Z,93702.59
2022-08-05T13:49:45.094Z,93699.97
2022-08-05T13:50:49.646Z,93695.21
2022-08-05T13:51:52.840Z,93694.59
2022-08-05T13:52:57.261Z,93694.70
2022-08-05T13:54:01.801Z,93690.02
2022-08-05T13:55:07.634Z,93692.99
2022-08-05T13:56:18.481Z,93694.80
2022-08-05T13:57:23.055Z,93696.37
2022-08-05T13:58:30.772Z,93690.65
2022-08-05T13:59:37.645Z,93694.08
2022-08-05T14:01:00.927Z,93695.29
2022-08-05T14:02:07.429Z,93690.70
2022-08-05T14:03:23.333Z,93692.17
2022-08-05T14:04:49.672Z,93690.32
2022-08-05T14:06:26.489Z,93686.01
2022-08-05T14:08:00.139Z,93686.65
2022-08-05T14:08:50.925Z,93684.77
2022-08-05T14:09:55.943Z,93683.95
2022-08-05T14:10:59.774Z,93684.73
2022-08-05T14:12:17.689Z,93683.27
2022-08-05T14:13:23.554Z,93682.42
2022-08-05T14:14:32.304Z,93681.45
2022-08-05T14:16:05.143Z,93677.91
2022-08-05T14:17:02.637Z,93681.90
2022-08-05T14:18:14.970Z,93679.95